Time;durP1;ratioP1;P1;durP2;ratioP2;P2;SDS_P1;SDS_P2;PMS_P1;PMS_P2;Temp;Humidity;BMP_temperature;BMP_pressure;BME280_temperature;BME280_humidity;BME280_pressure;Samples;Min_cycle;Max_cycle;Signal;HPM_P1;HPM_P2
2022/07/17 00:01:29;;;;;;;3.57;1.60;;;19.40;49.40;;;;;;4996539;28;20547;-69
2022/07/17 00:03:56;;;;;;;6.83;2.07;;;19.30;49.60;;;;;;4996485;28;20453;-69
2022/07/17 00:06:23;;;;;;;2.10;1.33;;;19.30;49.80;;;;;;4996164;28;20811;-69
2022/07/17 00:08:50;;;;;;;4.93;1.53;;;19.20;49.90;;;;;;4996085;28;20970;-69
2022/07/17 00:11:18;;;;;;;2.57;1.63;;;19.20;50.10;;;;;;4995739;28;20518;-69
2022/07/17 00:13:45;;;;;;;2.20;1.50;;;19.10;50.30;;;;;;4996269;28;20452;-69
2022/07/17 00:16:12;;;;;;;4.20;1.63;;;19.00;50.30;;;;;;4996182;28;20506;-69
2022/07/17 00:18:38;;;;;;;4.73;1.83;;;19.00;50.60;;;;;;4996168;28;20830;-69
2022/07/17 00:21:05;;;;;;;4.93;1.97;;;18.90;50.70;;;;;;4995710;28;20970;-69
2022/07/17 00:23:33;;;;;;;8.30;2.13;;;18.90;51.00;;;;;;4996164;28;20444;-69
2022/07/17 00:25:59;;;;;;;4.00;1.80;;;18.80;51.20;;;;;;4996152;28;20448;-69
2022/07/17 00:28:27;;;;;;;4.60;1.80;;;18.80;51.20;;;;;;4996037;28;20468;-69
2022/07/17 00:30:54;;;;;;;3.40;1.83;;;18.70;51.30;;;;;;4996695;28;20440;-69
2022/07/17 00:33:21;;;;;;;3.03;1.50;;;18.70;51.50;;;;;;4995760;28;20468;-69
2022/07/17 00:35:48;;;;;;;2.33;1.60;;;18.60;51.50;;;;;;4995992;28;20448;-69
2022/07/17 00:38:15;;;;;;;3.27;1.53;;;18.60;51.60;;;;;;4995709;28;20488;-69
2022/07/17 00:40:42;;;;;;;4.53;1.60;;;18.60;51.70;;;;;;4995557;28;20535;-69
2022/07/17 00:43:08;;;;;;;4.37;1.77;;;18.50;51.60;;;;;;4995461;28;20448;-69
2022/07/17 00:45:36;;;;;;;3.00;1.50;;;18.50;51.70;;;;;;4995898;28;20563;-69
2022/07/17 00:48:05;;;;;;;5.87;1.73;;;18.50;52.30;;;;;;4995736;28;20464;-69
2022/07/17 00:50:34;;;;;;;5.93;2.07;;;18.50;51.80;;;;;;4995675;28;20444;-69
2022/07/17 00:53:01;;;;;;;6.30;1.80;;;18.50;52.00;;;;;;4995737;28;20452;-69
2022/07/17 00:55:28;;;;;;;3.73;1.90;;;18.50;52.30;;;;;;4995543;28;20458;-69
2022/07/17 00:57:56;;;;;;;3.30;1.93;;;18.40;52.50;;;;;;4994952;28;20495;-69
2022/07/17 01:00:24;;;;;;;11.37;2.00;;;18.40;52.60;;;;;;4995751;28;20452;-69
2022/07/17 01:02:54;;;;;;;5.00;1.60;;;18.40;52.70;;;;;;4995358;28;20452;-69
2022/07/17 01:05:22;;;;;;;6.10;1.43;;;18.30;52.90;;;;;;4995437;28;20433;-69
2022/07/17 01:07:49;;;;;;;4.07;1.97;;;18.20;53.10;;;;;;4995576;28;20464;-69
2022/07/17 01:10:17;;;;;;;3.13;1.90;;;18.20;53.10;;;;;;4994901;28;20829;-69
2022/07/17 01:12:46;;;;;;;3.10;1.50;;;18.20;53.30;;;;;;4995238;28;20520;-69
2022/07/17 01:15:14;;;;;;;5.53;2.20;;;18.10;53.20;;;;;;4995196;28;20456;-69
2022/07/17 01:17:42;;;;;;;2.70;1.33;;;18.10;53.30;;;;;;4995058;28;20579;-68
2022/07/17 01:20:11;;;;;;;5.33;1.67;;;18.10;53.50;;;;;;4995044;28;20448;-69
2022/07/17 01:22:44;;;;;;;5.63;1.83;;;18.10;53.60;;;;;;4994304;28;20456;-69
2022/07/17 01:25:11;;;;;;;1.60;1.20;;;18.00;53.70;;;;;;4995828;28;20440;-69
2022/07/17 01:27:37;;;;;;;3.10;1.80;;;17.90;53.70;;;;;;4994586;28;20474;-69
2022/07/17 01:30:06;;;;;;;1.70;1.40;;;17.90;53.70;;;;;;4994819;28;20451;-69
2022/07/17 01:32:33;;;;;;;2.23;1.70;;;17.80;53.60;;;;;;4994364;28;20471;-69
2022/07/17 01:35:00;;;;;;;1.70;1.23;;;17.80;53.50;;;;;;4994917;28;20440;-69
2022/07/17 01:37:27;;;;;;;2.27;1.30;;;17.80;53.60;;;;;;4994361;28;20575;-69
2022/07/17 01:39:56;;;;;;;2.00;1.53;;;17.70;53.50;;;;;;4994708;28;20460;-69
2022/07/17 01:42:25;;;;;;;3.17;1.40;;;17.60;53.50;;;;;;4994392;28;20961;-69
2022/07/17 01:44:52;;;;;;;3.43;1.37;;;17.60;53.60;;;;;;4994689;28;20547;-69
2022/07/17 01:47:19;;;;;;;1.80;1.60;;;17.60;53.80;;;;;;4994261;28;20841;-69
2022/07/17 01:49:46;;;;;;;2.27;1.50;;;17.50;53.90;;;;;;4994935;28;20459;-69
2022/07/17 01:52:13;;;;;;;1.43;1.33;;;17.60;54.20;;;;;;4994545;28;20464;-69
2022/07/17 01:54:40;;;;;;;3.50;1.83;;;17.50;54.40;;;;;;4994479;28;20485;-69
2022/07/17 01:57:09;;;;;;;4.80;1.67;;;17.50;54.50;;;;;;4994361;28;20491;-69
2022/07/17 01:59:36;;;;;;;2.67;1.60;;;17.40;54.80;;;;;;4994387;28;20821;-69
2022/07/17 02:02:04;;;;;;;4.23;1.70;;;17.40;54.90;;;;;;4994426;28;20813;-69
2022/07/17 02:04:31;;;;;;;4.90;1.93;;;17.40;55.00;;;;;;4994443;28;20531;-69
2022/07/17 02:06:58;;;;;;;2.33;1.70;;;17.40;55.10;;;;;;4994306;28;20464;-69
2022/07/17 02:09:25;;;;;;;2.67;1.83;;;17.40;55.80;;;;;;4994193;28;20452;-69
2022/07/17 02:11:52;;;;;;;4.13;1.60;;;17.30;55.30;;;;;;4994452;28;20456;-69
2022/07/17 02:14:20;;;;;;;3.93;1.70;;;17.30;55.60;;;;;;4994000;28;20858;-69
2022/07/17 02:16:47;;;;;;;5.07;1.63;;;17.30;55.40;;;;;;4993782;28;20966;-69
2022/07/17 02:19:14;;;;;;;3.00;1.73;;;17.20;55.40;;;;;;4993891;28;20824;-69
2022/07/17 02:21:41;;;;;;;3.90;1.50;;;17.10;55.30;;;;;;4994186;28;20467;-69
2022/07/17 02:24:07;;;;;;;3.20;1.47;;;17.10;55.20;;;;;;4994174;28;20444;-69
2022/07/17 02:26:34;;;;;;;2.90;1.77;;;17.00;55.20;;;;;;4993702;28;20794;-69
2022/07/17 02:29:01;;;;;;;3.60;2.10;;;17.00;55.40;;;;;;4993760;28;20812;-69
2022/07/17 02:31:29;;;;;;;2.30;1.70;;;16.90;55.60;;;;;;4993993;28;20467;-69
2022/07/17 02:33:56;;;;;;;2.30;1.67;;;16.90;55.60;;;;;;4993964;28;20440;-69
2022/07/17 02:36:22;;;;;;;2.30;1.60;;;16.80;55.60;;;;;;4998292;28;20452;-69
2022/07/17 02:38:50;;;;;;;3.67;2.07;;;16.80;55.60;;;;;;4998034;28;20480;-69
2022/07/17 02:41:17;;;;;;;4.87;2.00;;;16.80;55.80;;;;;;4998007;28;20448;-69
2022/07/17 02:43:43;;;;;;;4.50;1.93;;;16.80;55.90;;;;;;4998072;28;20448;-69
2022/07/17 02:46:10;;;;;;;3.73;1.73;;;16.80;56.20;;;;;;4997740;28;20970;-69
2022/07/17 02:48:38;;;;;;;3.13;1.73;;;16.80;56.30;;;;;;4997979;28;20472;-69
2022/07/17 02:51:06;;;;;;;4.00;2.20;;;16.80;56.60;;;;;;4997923;28;20448;-69
2022/07/17 02:53:33;;;;;;;2.10;1.63;;;16.70;56.70;;;;;;4997540;28;20510;-69
2022/07/17 02:56:00;;;;;;;3.93;1.43;;;16.70;56.90;;;;;;4997651;28;20946;-69
2022/07/17 02:58:26;;;;;;;1.77;1.67;;;16.60;57.00;;;;;;4997693;28;20479;-69
2022/07/17 03:00:53;;;;;;;3.17;1.60;;;16.50;57.00;;;;;;4998154;28;20456;-69
2022/07/17 03:03:20;;;;;;;2.63;1.63;;;16.50;57.10;;;;;;4997923;28;20450;-69
2022/07/17 03:05:48;;;;;;;2.20;1.73;;;16.50;57.10;;;;;;5004118;28;20432;-69
2022/07/17 03:08:15;;;;;;;2.90;1.60;;;16.50;57.20;;;;;;4998352;28;20471;-69
2022/07/17 03:10:42;;;;;;;2.70;1.50;;;16.40;57.20;;;;;;4997734;28;20480;-69
2022/07/17 03:13:09;;;;;;;3.77;1.93;;;16.40;57.20;;;;;;4997598;28;20448;-69
2022/07/17 03:15:35;;;;;;;3.20;2.43;;;16.40;57.20;;;;;;4997194;28;20467;-69
2022/07/17 03:18:02;;;;;;;8.60;2.60;;;16.40;57.30;;;;;;4997308;28;20484;-69
2022/07/17 03:20:29;;;;;;;4.13;1.80;;;16.40;57.40;;;;;;4997221;28;20468;-69
2022/07/17 03:22:57;;;;;;;4.70;2.63;;;16.40;57.50;;;;;;4997454;28;20444;-69
2022/07/17 03:25:24;;;;;;;6.40;2.50;;;16.30;57.60;;;;;;4997366;28;20470;-69
2022/07/17 03:27:50;;;;;;;3.67;2.60;;;16.30;57.60;;;;;;4996890;28;20460;-69
2022/07/17 03:30:17;;;;;;;6.30;2.43;;;16.20;57.60;;;;;;4997153;28;20455;-69
2022/07/17 03:32:44;;;;;;;5.13;2.00;;;16.20;57.80;;;;;;4996819;28;20466;-69
2022/07/17 03:35:11;;;;;;;4.30;2.27;;;16.10;57.90;;;;;;4997107;28;20514;-70
2022/07/17 03:37:38;;;;;;;3.43;1.93;;;16.10;58.00;;;;;;4997005;28;20488;-69
2022/07/17 03:40:08;;;;;;;3.63;1.87;;;16.00;58.00;;;;;;4997021;28;20448;-69
2022/07/17 03:42:35;;;;;;;2.30;1.93;;;16.00;58.00;;;;;;4996611;28;20459;-69
2022/07/17 03:45:02;;;;;;;5.10;2.13;;;16.00;58.10;;;;;;4996667;28;20490;-69
2022/07/17 03:47:28;;;;;;;2.53;1.77;;;15.90;58.10;;;;;;4995692;28;20464;-69
2022/07/17 03:49:55;;;;;;;4.10;1.90;;;15.90;58.50;;;;;;4996764;28;20459;-69
2022/07/17 03:52:22;;;;;;;2.10;1.70;;;15.80;58.60;;;;;;4996811;28;20448;-69
2022/07/17 03:54:49;;;;;;;3.50;2.23;;;15.80;58.70;;;;;;4996686;28;20475;-69
2022/07/17 03:57:17;;;;;;;2.40;1.80;;;15.90;58.80;;;;;;4996505;28;20468;-69
2022/07/17 03:59:44;;;;;;;2.93;2.20;;;15.90;58.90;;;;;;4996616;28;20806;-69
2022/07/17 04:02:10;;;;;;;5.00;2.43;;;15.90;59.00;;;;;;4996648;28;20443;-69
2022/07/17 04:04:37;;;;;;;4.57;1.90;;;15.90;59.20;;;;;;4996558;28;20444;-69
2022/07/17 04:07:04;;;;;;;5.23;1.90;;;15.90;59.50;;;;;;4996503;28;20479;-69
2022/07/17 04:09:30;;;;;;;2.27;2.07;;;15.90;59.60;;;;;;4996501;28;20448;-69
2022/07/17 04:11:57;;;;;;;3.30;1.80;;;15.80;59.50;;;;;;4996230;28;20938;-69
2022/07/17 04:14:25;;;;;;;3.13;2.30;;;15.80;59.70;;;;;;4996707;28;20452;-69
2022/07/17 04:16:52;;;;;;;2.73;1.93;;;15.70;59.80;;;;;;4996177;28;21001;-69
2022/07/17 04:19:19;;;;;;;3.40;1.97;;;15.70;60.00;;;;;;4995955;28;20490;-69
2022/07/17 04:21:45;;;;;;;4.53;2.20;;;15.70;60.00;;;;;;4996972;28;20448;-69
2022/07/17 04:24:12;;;;;;;4.40;2.37;;;15.70;60.00;;;;;;4996429;28;20452;-69
2022/07/17 04:26:39;;;;;;;2.50;1.90;;;15.70;60.20;;;;;;4995649;28;20965;-69
2022/07/17 04:29:06;;;;;;;4.93;2.40;;;15.70;60.30;;;;;;4995832;28;20812;-69
2022/07/17 04:31:34;;;;;;;5.60;2.30;;;15.70;60.60;;;;;;4995944;28;20471;-69
2022/07/17 04:34:00;;;;;;;4.80;2.30;;;15.70;61.00;;;;;;4996036;28;20429;-69
2022/07/17 04:36:27;;;;;;;2.83;1.80;;;15.70;61.00;;;;;;4995962;28;20459;-69
2022/07/17 04:38:54;;;;;;;3.90;1.87;;;15.80;61.20;;;;;;4995645;28;20480;-69
2022/07/17 04:41:21;;;;;;;4.07;2.67;;;15.80;61.50;;;;;;4995873;28;20448;-69
2022/07/17 04:43:47;;;;;;;4.83;1.80;;;15.80;61.90;;;;;;4995833;28;20440;-69
2022/07/17 04:46:14;;;;;;;6.50;2.33;;;15.70;62.10;;;;;;4995828;28;20455;-69
2022/07/17 04:48:42;;;;;;;2.30;2.00;;;15.80;62.70;;;;;;4995582;28;20468;-69
2022/07/17 04:51:09;;;;;;;3.20;2.20;;;15.80;63.00;;;;;;4995795;28;20448;-69
2022/07/17 04:53:37;;;;;;;4.57;2.60;;;15.90;63.30;;;;;;4995729;28;20456;-69
2022/07/17 04:56:04;;;;;;;8.43;2.10;;;15.90;63.50;;;;;;4995648;28;20542;-69
2022/07/17 04:58:30;;;;;;;5.07;2.00;;;15.90;63.60;;;;;;4995168;28;20480;-69
2022/07/17 05:00:57;;;;;;;4.10;2.53;;;16.00;64.20;;;;;;4995464;28;20451;-69
2022/07/17 05:03:24;;;;;;;4.13;2.33;;;16.00;64.40;;;;;;4995147;28;20942;-69
2022/07/17 05:05:52;;;;;;;3.57;2.53;;;16.00;64.70;;;;;;4995415;28;20453;-69
2022/07/17 05:08:19;;;;;;;5.17;2.80;;;16.00;65.00;;;;;;4994970;28;20824;-69
2022/07/17 05:10:46;;;;;;;8.70;2.97;;;16.10;65.20;;;;;;4995127;28;20958;-69
2022/07/17 05:13:13;;;;;;;5.13;2.73;;;16.10;65.50;;;;;;4995220;28;20444;-69
2022/07/17 05:15:40;;;;;;;6.67;2.30;;;16.10;66.70;;;;;;4995160;28;20857;-69
2022/07/17 05:18:06;;;;;;;6.10;3.13;;;16.10;67.20;;;;;;4995092;28;20487;-69
2022/07/17 05:20:33;;;;;;;3.70;2.70;;;16.20;67.80;;;;;;4995104;28;20459;-69
2022/07/17 05:23:01;;;;;;;6.20;3.10;;;16.30;67.90;;;;;;4994787;28;20957;-69
2022/07/17 05:25:28;;;;;;;5.27;3.33;;;16.40;67.80;;;;;;4995034;28;20452;-69
2022/07/17 05:27:55;;;;;;;3.73;2.70;;;16.50;68.00;;;;;;4994868;28;20474;-69
2022/07/17 05:30:22;;;;;;;3.57;2.97;;;16.60;67.60;;;;;;4994943;28;20448;-69
2022/07/17 05:32:48;;;;;;;5.53;3.17;;;16.60;66.80;;;;;;4994574;28;20849;-69
2022/07/17 05:35:15;;;;;;;4.53;2.90;;;16.70;67.90;;;;;;4994491;28;20960;-69
2022/07/17 05:37:42;;;;;;;4.43;3.20;;;16.70;68.40;;;;;;4994937;28;20475;-69
2022/07/17 05:40:10;;;;;;;5.97;4.50;;;16.80;68.10;;;;;;4994882;28;20448;-69
2022/07/17 05:42:37;;;;;;;4.93;3.40;;;16.80;68.80;;;;;;4994703;28;20444;-69
2022/07/17 05:45:04;;;;;;;6.23;3.40;;;16.90;67.70;;;;;;4994631;28;20464;-69
2022/07/17 05:47:31;;;;;;;4.93;3.47;;;17.00;68.10;;;;;;4994276;28;20806;-69
2022/07/17 05:49:58;;;;;;;7.07;3.80;;;17.10;68.80;;;;;;4994507;28;20445;-69
2022/07/17 05:52:25;;;;;;;4.47;3.03;;;17.20;68.30;;;;;;4994593;28;20474;-69
2022/07/17 05:54:51;;;;;;;4.97;3.03;;;17.20;67.80;;;;;;4994200;28;20827;-69
2022/07/17 05:57:20;;;;;;;7.00;3.57;;;17.30;67.30;;;;;;4994531;28;20469;-69
2022/07/17 05:59:46;;;;;;;6.30;3.27;;;17.40;67.30;;;;;;4994167;28;20475;-69
2022/07/17 06:02:13;;;;;;;6.63;3.60;;;17.50;67.50;;;;;;4994385;28;20448;-69
2022/07/17 06:04:40;;;;;;;4.57;3.40;;;17.50;67.30;;;;;;4994367;28;20485;-69
2022/07/17 06:07:07;;;;;;;3.40;2.83;;;17.60;68.30;;;;;;4994327;28;20487;-69
2022/07/17 06:09:33;;;;;;;5.27;2.70;;;17.70;69.50;;;;;;4993705;28;20446;-69
2022/07/17 06:12:00;;;;;;;5.60;2.53;;;17.80;68.30;;;;;;4994006;28;20816;-69
2022/07/17 06:14:28;;;;;;;5.83;3.00;;;17.90;68.50;;;;;;4994322;28;20480;-69
2022/07/17 06:16:55;;;;;;;3.57;2.20;;;18.10;68.20;;;;;;4994176;28;20464;-69
2022/07/17 06:19:22;;;;;;;6.60;2.50;;;18.20;67.70;;;;;;4993835;28;20509;-69
2022/07/17 06:21:49;;;;;;;4.10;3.03;;;18.30;67.50;;;;;;4993932;28;20452;-69
2022/07/17 06:24:15;;;;;;;6.40;2.70;;;18.50;66.90;;;;;;4994155;28;20531;-69
2022/07/17 06:26:42;;;;;;;6.73;2.80;;;18.60;65.20;;;;;;4994096;28;20448;-69
2022/07/17 06:29:09;;;;;;;8.40;2.63;;;18.80;63.70;;;;;;4993703;28;20448;-69
2022/07/17 06:31:37;;;;;;;10.83;3.03;;;18.90;61.90;;;;;;4993707;28;20455;-69
2022/07/17 06:34:04;;;;;;;4.60;2.03;;;19.00;62.00;;;;;;4994106;28;20523;-69
2022/07/17 06:36:31;;;;;;;3.37;2.10;;;19.20;62.60;;;;;;4994120;28;20805;-69
2022/07/17 06:38:57;;;;;;;9.37;2.70;;;19.30;62.70;;;;;;4993651;28;20476;-69
2022/07/17 06:41:24;;;;;;;6.43;2.33;;;19.50;61.20;;;;;;4993920;28;20817;-69
2022/07/17 06:43:51;;;;;;;5.77;2.63;;;19.60;59.40;;;;;;4993760;28;20816;-69
2022/07/17 06:46:18;;;;;;;6.27;2.30;;;19.70;58.60;;;;;;4993711;28;20463;-69
2022/07/17 06:48:46;;;;;;;7.50;2.33;;;19.90;57.90;;;;;;4993917;28;20498;-69
2022/07/17 06:51:12;;;;;;;10.80;2.60;;;20.00;57.80;;;;;;4993962;28;20451;-69
2022/07/17 06:53:39;;;;;;;9.57;1.97;;;20.20;57.90;;;;;;4993993;28;20448;-69
2022/07/17 06:56:06;;;;;;;4.30;2.53;;;20.30;57.20;;;;;;4994601;28;20452;-69
2022/07/17 06:58:33;;;;;;;5.07;2.07;;;20.50;57.00;;;;;;4993714;28;20491;-69
2022/07/17 07:00:59;;;;;;;4.73;2.50;;;20.70;56.30;;;;;;4993944;28;20432;-69
2022/07/17 07:03:26;;;;;;;5.50;2.67;;;20.80;56.10;;;;;;4993791;28;20451;-69
2022/07/17 07:05:55;;;;;;;6.93;3.00;;;21.00;55.40;;;;;;4993918;28;20451;-69
2022/07/17 07:08:21;;;;;;;6.07;2.27;;;21.10;55.60;;;;;;4993675;28;20479;-69
2022/07/17 07:10:48;;;;;;;3.87;2.40;;;21.20;54.80;;;;;;4993882;28;20452;-69
2022/07/17 07:13:15;;;;;;;6.80;2.13;;;21.40;53.80;;;;;;4993711;28;20452;-69
2022/07/17 07:15:41;;;;;;;4.67;2.53;;;21.50;53.80;;;;;;4993705;28;20452;-69
2022/07/17 07:18:09;;;;;;;3.23;2.13;;;21.70;52.60;;;;;;4993495;28;20495;-69
2022/07/17 07:20:36;;;;;;;11.47;2.43;;;21.80;52.00;;;;;;4994812;28;20448;-69
2022/07/17 07:23:04;;;;;;;1.87;1.50;;;22.00;52.50;;;;;;4997334;28;20451;-69
2022/07/17 07:25:31;;;;;;;2.93;1.73;;;22.20;51.90;;;;;;4997252;28;20527;-69
2022/07/17 07:27:58;;;;;;;2.10;1.70;;;22.40;52.20;;;;;;4997136;28;20476;-69
2022/07/17 07:30:25;;;;;;;7.17;1.83;;;22.60;51.60;;;;;;4997216;28;20475;-69
2022/07/17 07:32:52;;;;;;;4.03;2.13;;;22.90;51.00;;;;;;4996905;28;20463;-69
2022/07/17 07:35:18;;;;;;;2.90;1.87;;;23.20;50.00;;;;;;4996867;28;20945;-69
2022/07/17 07:37:45;;;;;;;4.90;2.00;;;23.40;48.80;;;;;;4997114;28;20468;-69
2022/07/17 07:40:14;;;;;;;3.50;2.10;;;23.60;49.50;;;;;;4997074;28;20515;-69
2022/07/17 07:42:40;;;;;;;2.10;1.80;;;23.80;47.70;;;;;;4997023;28;20457;-69
2022/07/17 07:45:09;;;;;;;7.93;2.13;;;23.90;47.00;;;;;;4996890;28;20893;-69
2022/07/17 07:47:42;;;;;;;3.93;1.80;;;24.00;46.80;;;;;;4996861;28;20472;-70
2022/07/17 07:50:10;;;;;;;4.10;1.60;;;24.30;47.00;;;;;;4997162;28;20440;-69
2022/07/17 07:52:36;;;;;;;5.27;2.30;;;24.50;47.00;;;;;;4996489;28;20458;-69
2022/07/17 07:55:04;;;;;;;5.73;2.03;;;24.60;45.60;;;;;;4996483;28;20459;-69
2022/07/17 07:57:32;;;;;;;3.93;1.90;;;24.70;46.00;;;;;;4996630;28;20472;-70
2022/07/17 07:59:59;;;;;;;5.13;2.00;;;24.70;45.10;;;;;;4996578;28;20476;-70
2022/07/17 08:02:25;;;;;;;4.47;1.67;;;24.90;44.20;;;;;;4996607;28;20799;-70
2022/07/17 08:04:52;;;;;;;5.03;2.07;;;24.90;44.10;;;;;;4996210;28;20809;-70
2022/07/17 08:07:19;;;;;;;4.87;1.67;;;24.90;44.60;;;;;;4996297;28;20472;-70
2022/07/17 08:09:46;;;;;;;4.30;1.60;;;25.00;43.90;;;;;;4996115;28;20444;-70
2022/07/17 08:12:12;;;;;;;3.90;1.80;;;25.10;44.20;;;;;;5001911;28;20436;-70
2022/07/17 08:14:41;;;;;;;7.03;2.20;;;25.20;43.30;;;;;;4996271;28;20950;-70
2022/07/17 08:17:07;;;;;;;9.97;1.70;;;25.10;41.40;;;;;;4996376;28;20822;-70
2022/07/17 08:19:34;;;;;;;5.30;2.07;;;25.10;41.40;;;;;;4995859;28;20886;-70
2022/07/17 08:22:01;;;;;;;4.63;1.50;;;25.10;42.20;;;;;;4996441;28;20444;-69
2022/07/17 08:24:28;;;;;;;6.60;2.20;;;25.40;42.10;;;;;;4996419;28;20452;-69
2022/07/17 08:26:55;;;;;;;6.97;1.70;;;25.40;42.20;;;;;;4995758;28;21000;-69
2022/07/17 08:29:22;;;;;;;4.37;1.70;;;25.70;43.00;;;;;;4996203;28;20440;-67
2022/07/17 08:31:52;;;;;;;5.40;1.67;;;25.90;42.50;;;;;;4995481;28;20456;-69
2022/07/17 08:34:19;;;;;;;3.37;1.63;;;26.10;42.30;;;;;;4996165;28;20448;-69
2022/07/17 08:36:46;;;;;;;3.57;1.47;;;26.30;40.70;;;;;;4996027;28;20527;-68
2022/07/17 08:39:12;;;;;;;2.40;1.23;;;26.30;39.10;;;;;;4995928;28;20491;-70
2022/07/17 08:41:40;;;;;;;4.10;1.63;;;26.20;39.80;;;;;;4996077;28;20448;-68
2022/07/17 08:44:07;;;;;;;6.17;1.77;;;26.30;39.30;;;;;;4995873;28;20463;-68
2022/07/17 08:46:37;;;;;;;3.53;1.30;;;26.40;38.80;;;;;;4995968;28;20463;-68
2022/07/17 08:49:07;;;;;;;2.80;1.63;;;26.60;38.60;;;;;;4995815;28;20917;-69
2022/07/17 08:51:34;;;;;;;7.87;1.63;;;27.00;38.90;;;;;;4996160;28;20806;-68
2022/07/17 08:54:02;;;;;;;5.07;2.00;;;27.30;38.30;;;;;;4995751;28;20444;-68
2022/07/17 08:56:28;;;;;;;3.87;1.57;;;27.40;37.90;;;;;;4995756;28;20459;-68
2022/07/17 08:58:56;;;;;;;5.40;2.20;;;27.50;37.10;;;;;;4995631;28;20503;-68
2022/07/17 09:01:23;;;;;;;3.10;1.40;;;27.50;37.40;;;;;;4995629;28;20950;-68
2022/07/17 09:03:59;;;;;;;2.50;1.57;;;27.50;36.50;;;;;;4996513;28;20520;-68
2022/07/17 09:06:28;;;;;;;3.73;1.47;;;27.50;35.50;;;;;;4995295;28;20512;-68
2022/07/17 09:09:06;;;;;;;3.60;1.50;;;27.60;35.50;;;;;;4995310;28;20456;-68
2022/07/17 09:11:43;;;;;;;5.30;1.83;;;28.00;35.20;;;;;;4995589;28;20432;-68
2022/07/17 09:14:10;;;;;;;4.20;1.80;;;28.30;34.80;;;;;;4995530;28;20433;-68
2022/07/17 09:16:37;;;;;;;3.17;1.70;;;28.80;35.30;;;;;;4995336;28;20433;-68
2022/07/17 09:19:04;;;;;;;3.30;1.80;;;29.10;34.60;;;;;;4994887;28;20817;-68
2022/07/17 09:21:32;;;;;;;4.00;1.30;;;29.40;34.00;;;;;;4994901;28;20942;-68
2022/07/17 09:24:00;;;;;;;2.97;1.33;;;29.60;32.70;;;;;;4995135;28;20456;-68
2022/07/17 09:26:27;;;;;;;3.57;1.37;;;29.80;33.50;;;;;;4994773;28;20887;-68
2022/07/17 09:28:54;;;;;;;4.97;1.50;;;30.00;33.20;;;;;;4994962;28;20472;-68
2022/07/17 09:31:32;;;;;;;4.33;2.00;;;30.20;33.10;;;;;;4994892;28;20428;-68
2022/07/17 09:33:59;;;;;;;4.03;1.80;;;30.50;32.10;;;;;;4994924;28;20428;-68
2022/07/17 09:36:27;;;;;;;4.63;1.83;;;30.30;30.40;;;;;;4994795;28;20451;-68
2022/07/17 09:38:57;;;;;;;3.03;1.70;;;30.10;31.80;;;;;;4994489;28;20476;-69
2022/07/17 09:41:25;;;;;;;5.57;1.50;;;30.00;31.20;;;;;;4994863;28;20436;-68
2022/07/17 09:43:54;;;;;;;4.00;2.13;;;29.80;32.00;;;;;;4993807;28;20459;-68
2022/07/17 09:46:23;;;;;;;6.77;1.87;;;29.70;32.60;;;;;;4994362;28;20906;-68
2022/07/17 09:48:52;;;;;;;4.73;1.50;;;29.70;32.90;;;;;;4994228;28;20507;-68
2022/07/17 09:51:21;;;;;;;3.90;1.73;;;29.60;31.80;;;;;;4994277;28;20931;-68
2022/07/17 09:53:49;;;;;;;7.47;2.10;;;29.70;33.20;;;;;;4994251;28;20938;-68
2022/07/17 09:56:19;;;;;;;3.57;1.57;;;29.80;31.20;;;;;;4994311;28;20449;-68
2022/07/17 09:58:49;;;;;;;5.43;1.90;;;30.00;31.40;;;;;;4994337;28;20482;-68
2022/07/17 10:01:16;;;;;;;6.83;1.60;;;30.40;30.70;;;;;;4994461;28;20436;-68
2022/07/17 10:03:45;;;;;;;8.13;1.83;;;30.90;29.90;;;;;;4994525;28;20451;-68
2022/07/17 10:06:11;;;;;;;2.70;1.30;;;31.40;30.20;;;;;;4994344;28;20861;-69
2022/07/17 10:08:39;;;;;;;6.63;1.90;;;31.90;30.50;;;;;;4994320;28;20471;-68
2022/07/17 10:11:07;;;;;;;4.97;1.83;;;32.30;29.00;;;;;;4994928;28;20448;-68
2022/07/17 10:13:37;;;;;;;3.03;1.90;;;32.60;29.10;;;;;;4994302;28;20451;-68
2022/07/17 10:16:04;;;;;;;4.83;2.10;;;33.10;29.00;;;;;;4994343;28;20432;-68
2022/07/17 10:18:41;;;;;;;4.40;2.30;;;33.60;28.20;;;;;;4994346;28;20814;-68
2022/07/17 10:21:13;;;;;;;3.50;1.90;;;34.10;27.60;;;;;;4994219;28;20562;-69
2022/07/17 10:23:40;;;;;;;4.17;1.30;;;34.50;26.60;;;;;;4994299;28;20432;-69
2022/07/17 10:26:07;;;;;;;4.80;2.10;;;35.00;26.50;;;;;;4994245;28;20474;-69
2022/07/17 10:28:44;;;;;;;5.23;1.73;;;35.50;25.80;;;;;;4994027;28;20478;-69
2022/07/17 10:31:22;;;;;;;8.60;1.63;;;35.80;23.20;;;;;;4994044;28;20455;-69
2022/07/17 10:33:57;;;;;;;3.20;1.60;;;36.20;23.70;;;;;;4994142;28;20442;-69
2022/07/17 10:36:34;;;;;;;3.60;1.87;;;36.60;23.70;;;;;;4993796;28;20537;-69
2022/07/17 10:39:11;;;;;;;5.77;1.70;;;36.90;22.90;;;;;;4994051;28;20192;-69
2022/07/17 10:41:38;;;;;;;3.70;1.80;;;37.20;22.90;;;;;;4994186;28;20181;-69
2022/07/17 10:44:07;;;;;;;4.00;2.07;;;37.60;22.20;;;;;;4993947;28;20209;-69
2022/07/17 10:46:34;;;;;;;4.03;1.73;;;37.80;22.90;;;;;;4993774;28;20635;-69
2022/07/17 10:49:03;;;;;;;3.63;1.47;;;38.10;22.90;;;;;;4993842;28;20295;-69
2022/07/17 10:51:33;;;;;;;4.07;1.80;;;38.50;22.10;;;;;;4993729;28;20208;-69
2022/07/17 10:54:00;;;;;;;3.63;2.03;;;38.90;21.40;;;;;;4993934;28;20203;-69
2022/07/17 10:56:27;;;;;;;4.25;2.15;;;39.10;20.10;;;;;;4996626;28;20211;-69
2022/07/17 10:59:01;;;;;;;4.82;1.58;;;39.20;20.30;;;;;;4997908;28;20323;-69
2022/07/17 11:01:30;;;;;;;8.40;2.47;;;39.50;21.00;;;;;;4997770;28;20226;-69
2022/07/17 11:03:59;;;;;;;2.45;1.60;;;39.80;20.70;;;;;;4997796;28;20213;-69
2022/07/17 11:06:29;;;;;;;6.22;1.70;;;40.20;19.50;;;;;;4997985;28;20188;-69
2022/07/17 11:08:59;;;;;;;3.90;1.58;;;40.50;19.50;;;;;;4997498;28;20674;-69
2022/07/17 11:11:37;;;;;;;2.95;1.38;;;40.70;18.70;;;;;;4997987;28;20268;-69
2022/07/17 11:14:12;;;;;;;3.20;1.52;;;41.20;18.50;;;;;;4997491;28;20199;-69
2022/07/17 11:16:45;;;;;;;5.10;1.98;;;41.70;18.30;;;;;;4997575;28;20211;-69
2022/07/17 11:19:13;;;;;;;3.53;1.60;;;42.00;16.80;;;;;;4997434;28;20207;-69
2022/07/17 11:21:46;;;;;;;2.28;1.50;;;42.00;16.80;;;;;;4997578;28;20188;-69
2022/07/17 11:24:13;;;;;;;3.20;1.83;;;42.20;17.90;;;;;;4997530;28;20199;-69
2022/07/17 11:26:40;;;;;;;3.08;1.55;;;42.50;17.80;;;;;;4997346;28;20204;-69
2022/07/17 11:29:06;;;;;;;1.90;1.63;;;42.90;17.60;;;;;;4996948;28;20697;-69
2022/07/17 11:31:33;;;;;;;2.10;1.23;;;43.40;16.90;;;;;;4997200;28;20211;-69
2022/07/17 11:34:03;;;;;;;4.63;1.55;;;43.80;16.70;;;;;;4997227;28;20213;-69
2022/07/17 11:36:32;;;;;;;5.68;2.22;;;44.20;16.60;;;;;;4996962;28;20701;-69
2022/07/17 11:39:02;;;;;;;3.20;1.75;;;43.90;15.20;;;;;;4996785;28;20696;-69
2022/07/17 11:41:33;;;;;;;3.67;1.85;;;43.50;15.90;;;;;;4997859;28;20228;-69
2022/07/17 11:44:01;;;;;;;2.53;1.20;;;43.50;16.60;;;;;;4997044;28;20210;-69
2022/07/17 11:46:29;;;;;;;4.25;1.75;;;43.80;17.10;;;;;;4996975;28;20259;-69
2022/07/17 11:48:55;;;;;;;4.63;1.55;;;44.10;17.00;;;;;;4996826;28;20315;-69
2022/07/17 11:51:34;;;;;;;1.95;0.93;;;44.70;16.60;;;;;;4996911;28;20200;-69
2022/07/17 11:54:04;;;;;;;4.80;1.73;;;45.20;16.10;;;;;;4996954;28;20193;-69
2022/07/17 11:56:31;;;;;;;4.25;2.05;;;45.70;15.10;;;;;;4996563;28;20189;-70
2022/07/17 11:58:58;;;;;;;3.88;1.73;;;46.00;14.60;;;;;;4996709;28;20206;-70
2022/07/17 12:01:28;;;;;;;2.97;1.70;;;45.80;14.00;;;;;;4996550;28;20227;-70
2022/07/17 12:03:58;;;;;;;2.92;1.48;;;45.90;14.30;;;;;;4996702;28;20189;-70
2022/07/17 12:06:27;;;;;;;2.55;1.40;;;45.80;14.80;;;;;;4996331;28;20271;-70
2022/07/17 12:08:54;;;;;;;3.33;1.35;;;46.00;14.60;;;;;;4995930;28;20228;-69
2022/07/17 12:11:22;;;;;;;4.75;1.38;;;46.20;15.00;;;;;;4996550;28;20232;-69
2022/07/17 12:13:50;;;;;;;4.00;1.80;;;46.50;14.50;;;;;;4996439;28;20251;-69
2022/07/17 12:16:29;;;;;;;3.95;1.80;;;46.70;14.00;;;;;;4996118;28;20212;-69
2022/07/17 12:19:03;;;;;;;2.75;1.40;;;46.70;14.30;;;;;;4996291;28;20308;-69
2022/07/17 12:21:32;;;;;;;3.90;1.80;;;47.00;14.50;;;;;;4996357;28;20205;-69
2022/07/17 12:24:03;;;;;;;2.88;1.52;;;47.20;14.00;;;;;;4996231;28;20211;-69
2022/07/17 12:26:30;;;;;;;3.97;1.67;;;47.60;13.80;;;;;;4996034;28;20638;-69
2022/07/17 12:28:57;;;;;;;2.42;1.40;;;47.90;13.40;;;;;;4995491;28;20232;-69
2022/07/17 12:31:24;;;;;;;5.32;1.60;;;48.20;12.90;;;;;;4995761;28;20666;-69
2022/07/17 12:33:54;;;;;;;4.95;1.63;;;48.50;12.00;;;;;;4995651;28;20227;-69
2022/07/17 12:36:22;;;;;;;2.72;1.40;;;48.40;12.20;;;;;;4996084;28;20208;-69
2022/07/17 12:38:51;;;;;;;3.13;1.45;;;48.50;12.70;;;;;;4995887;28;20229;-69
2022/07/17 12:41:18;;;;;;;4.75;1.85;;;48.60;12.80;;;;;;4996011;28;20232;-69
2022/07/17 12:43:45;;;;;;;2.40;1.23;;;48.60;11.40;;;;;;4995573;28;20239;-70
2022/07/17 12:46:13;;;;;;;3.47;1.80;;;48.10;11.50;;;;;;4995823;28;20299;-69
2022/07/17 12:48:41;;;;;;;2.70;1.42;;;47.90;12.70;;;;;;4995790;28;20224;-69